sensor_id;sensor_type;location;lat;lon;timestamp;pressure;altitude;pressure_sealevel;temperature;humidity
48848;BME280;36611;51.638;5.784;2022-09-17T00:01:21;101165.50;;;15.36;58.26
48848;BME280;36611;51.638;5.784;2022-09-17T00:03:54;101166.63;;;15.34;58.07
48848;BME280;36611;51.638;5.784;2022-09-17T00:06:23;101168.47;;;15.33;58.16
48848;BME280;36611;51.638;5.784;2022-09-17T00:08:51;101169.59;;;15.31;58.17
48848;BME280;36611;51.638;5.784;2022-09-17T00:11:29;101160.63;;;15.30;58.07
48848;BME280;36611;51.638;5.784;2022-09-17T00:13:58;101178.69;;;15.30;58.34
48848;BME280;36611;51.638;5.784;2022-09-17T00:16:37;101178.84;;;15.28;58.17
48848;BME280;36611;51.638;5.784;2022-09-17T00:19:06;101183.25;;;15.29;58.38
48848;BME280;36611;51.638;5.784;2022-09-17T00:21:35;101183.25;;;15.29;58.35
48848;BME280;36611;51.638;5.784;2022-09-17T00:24:04;101187.69;;;15.30;58.34
48848;BME280;36611;51.638;5.784;2022-09-17T00:26:32;101195.94;;;15.29;58.38
48848;BME280;36611;51.638;5.784;2022-09-17T00:28:59;101192.50;;;15.26;58.27
48848;BME280;36611;51.638;5.784;2022-09-17T00:31:27;101188.94;;;15.26;58.63
48848;BME280;36611;51.638;5.784;2022-09-17T00:33:55;101201.34;;;15.29;58.50
48848;BME280;36611;51.638;5.784;2022-09-17T00:36:22;101201.34;;;15.29;58.32
48848;BME280;36611;51.638;5.784;2022-09-17T00:38:53;101201.34;;;15.29;58.48
48848;BME280;36611;51.638;5.784;2022-09-17T00:41:22;101203.06;;;15.30;58.54
48848;BME280;36611;51.638;5.784;2022-09-17T00:43:55;101203.91;;;15.30;58.46
48848;BME280;36611;51.638;5.784;2022-09-17T00:49:02;101205.63;;;15.31;58.86
48848;BME280;36611;51.638;5.784;2022-09-17T00:51:35;101209.19;;;15.32;58.47
48848;BME280;36611;51.638;5.784;2022-09-17T00:54:08;101217.31;;;15.32;58.63
48848;BME280;36611;51.638;5.784;2022-09-17T00:56:38;101219.03;;;15.33;58.96
48848;BME280;36611;51.638;5.784;2022-09-17T00:59:05;101211.03;;;15.31;58.65
48848;BME280;36611;51.638;5.784;2022-09-17T01:01:31;101208.34;;;15.31;58.81
48848;BME280;36611;51.638;5.784;2022-09-17T01:03:59;101207.47;;;15.31;58.60
48848;BME280;36611;51.638;5.784;2022-09-17T01:07:01;101211.91;;;15.32;58.47
48848;BME280;36611;51.638;5.784;2022-09-17T01:23:26;101217.38;;;15.20;59.08
48848;BME280;36611;51.638;5.784;2022-09-17T01:29:05;101213.94;;;15.18;59.02
48848;BME280;36611;51.638;5.784;2022-09-17T01:31:50;101214.06;;;15.17;58.91
48848;BME280;36611;51.638;5.784;2022-09-17T01:34:57;101226.88;;;15.15;58.98
48848;BME280;36611;51.638;5.784;2022-09-17T01:37:35;101234.84;;;15.16;58.93
48848;BME280;36611;51.638;5.784;2022-09-17T01:40:12;101230.44;;;15.15;58.64
48848;BME280;36611;51.638;5.784;2022-09-17T01:42:48;101234.84;;;15.16;59.00
48848;BME280;36611;51.638;5.784;2022-09-17T01:45:26;101234.13;;;15.14;59.00
48848;BME280;36611;51.638;5.784;2022-09-17T01:50:39;101247.91;;;15.11;58.53
48848;BME280;36611;51.638;5.784;2022-09-17T01:53:08;101246.06;;;15.12;58.62
48848;BME280;36611;51.638;5.784;2022-09-17T01:55:38;101246.91;;;15.12;58.71
48848;BME280;36611;51.638;5.784;2022-09-17T01:58:42;101241.75;;;15.09;58.74
48848;BME280;36611;51.638;5.784;2022-09-17T02:01:12;101243.47;;;15.10;58.85
48848;BME280;36611;51.638;5.784;2022-09-17T02:03:52;101233.53;;;15.11;58.81
48848;BME280;36611;51.638;5.784;2022-09-17T02:06:26;101237.22;;;15.10;58.84
48848;BME280;36611;51.638;5.784;2022-09-17T02:09:17;101231.06;;;15.08;58.65
48848;BME280;36611;51.638;5.784;2022-09-17T02:11:51;101241.03;;;15.07;58.92
48848;BME280;36611;51.638;5.784;2022-09-17T02:14:25;101243.00;;;15.05;58.80
48848;BME280;36611;51.638;5.784;2022-09-17T02:17:04;101244.00;;;15.04;58.58
48848;BME280;36611;51.638;5.784;2022-09-17T02:19:35;101246.69;;;15.04;58.64
48848;BME280;36611;51.638;5.784;2022-09-17T02:22:28;101246.09;;;15.01;58.56
48848;BME280;36611;51.638;5.784;2022-09-17T02:25:03;101250.66;;;15.00;58.74
48848;BME280;36611;51.638;5.784;2022-09-17T02:27:45;101255.06;;;15.01;58.67
48848;BME280;36611;51.638;5.784;2022-09-17T02:30:13;101252.25;;;15.03;58.63
48848;BME280;36611;51.638;5.784;2022-09-17T02:32:40;101260.09;;;15.06;58.78
48848;BME280;36611;51.638;5.784;2022-09-17T02:35:09;101258.38;;;15.05;58.95
48848;BME280;36611;51.638;5.784;2022-09-17T02:37:36;101259.25;;;15.05;58.88
48848;BME280;36611;51.638;5.784;2022-09-17T02:40:03;101255.53;;;15.06;58.57
48848;BME280;36611;51.638;5.784;2022-09-17T02:51:09;101262.69;;;15.07;58.28
48848;BME280;36611;51.638;5.784;2022-09-17T02:53:53;101260.69;;;15.09;58.47
48848;BME280;36611;51.638;5.784;2022-09-17T02:59:24;101259.59;;;15.12;58.33
48848;BME280;36611;51.638;5.784;2022-09-17T03:01:59;101257.88;;;15.11;58.73
48848;BME280;36611;51.638;5.784;2022-09-17T03:04:29;101260.69;;;15.09;58.20
48848;BME280;36611;51.638;5.784;2022-09-17T03:06:57;101264.41;;;15.08;58.62
48848;BME280;36611;51.638;5.784;2022-09-17T03:09:25;101268.09;;;15.07;58.38
48848;BME280;36611;51.638;5.784;2022-09-17T03:11:51;101263.78;;;15.05;58.45
48848;BME280;36611;51.638;5.784;2022-09-17T03:14:19;101264.03;;;15.02;58.42
48848;BME280;36611;51.638;5.784;2022-09-17T03:16:46;101263.31;;;15.00;58.84
48848;BME280;36611;51.638;5.784;2022-09-17T03:19:13;101264.31;;;14.99;58.99
48848;BME280;36611;51.638;5.784;2022-09-17T03:21:39;101261.47;;;15.00;58.96
48848;BME280;36611;51.638;5.784;2022-09-17T03:24:09;101255.19;;;15.00;58.87
48848;BME280;36611;51.638;5.784;2022-09-17T03:26:37;101255.31;;;14.98;58.90
48848;BME280;36611;51.638;5.784;2022-09-17T03:29:04;101256.31;;;14.97;58.68
48848;BME280;36611;51.638;5.784;2022-09-17T03:31:31;101252.75;;;14.97;58.73
48848;BME280;36611;51.638;5.784;2022-09-17T03:33:59;101256.31;;;14.97;58.86
48848;BME280;36611;51.638;5.784;2022-09-17T03:36:25;101254.34;;;14.99;58.67
48848;BME280;36611;51.638;5.784;2022-09-17T03:38:54;101255.19;;;15.00;59.00
48848;BME280;36611;51.638;5.784;2022-09-17T03:41:21;101251.63;;;14.99;58.64
48848;BME280;36611;51.638;5.784;2022-09-17T03:43:50;101251.63;;;14.99;58.52
48848;BME280;36611;51.638;5.784;2022-09-17T03:46:17;101255.19;;;15.00;58.59
48848;BME280;36611;51.638;5.784;2022-09-17T03:48:44;101256.19;;;14.99;58.63
48848;BME280;36611;51.638;5.784;2022-09-17T03:51:10;101252.63;;;14.98;58.91
48848;BME280;36611;51.638;5.784;2022-09-17T03:53:38;101260.59;;;15.00;58.72
48848;BME280;36611;51.638;5.784;2022-09-17T03:56:05;101260.59;;;15.00;59.11
48848;BME280;36611;51.638;5.784;2022-09-17T03:58:32;101260.34;;;15.03;58.95
48848;BME280;36611;51.638;5.784;2022-09-17T04:00:59;101261.22;;;15.03;58.91
48848;BME280;36611;51.638;5.784;2022-09-17T04:03:30;101257.25;;;15.07;58.71
48848;BME280;36611;51.638;5.784;2022-09-17T04:05:57;101258.13;;;15.08;58.99
48848;BME280;36611;51.638;5.784;2022-09-17T04:08:24;101266.97;;;15.10;59.05
48848;BME280;36611;51.638;5.784;2022-09-17T04:10:50;101264.88;;;15.13;58.97
48848;BME280;36611;51.638;5.784;2022-09-17T04:13:17;101264.88;;;15.13;59.11
48848;BME280;36611;51.638;5.784;2022-09-17T04:15:44;101267.44;;;15.15;58.98
48848;BME280;36611;51.638;5.784;2022-09-17T04:18:12;101266.59;;;15.14;58.84
48848;BME280;36611;51.638;5.784;2022-09-17T04:20:39;101264.88;;;15.13;58.94
48848;BME280;36611;51.638;5.784;2022-09-17T04:23:05;101270.28;;;15.13;58.95
48848;BME280;36611;51.638;5.784;2022-09-17T04:25:32;101272.97;;;15.13;58.61
48848;BME280;36611;51.638;5.784;2022-09-17T04:27:59;101272.97;;;15.13;58.44
48848;BME280;36611;51.638;5.784;2022-09-17T04:30:25;101275.69;;;15.13;58.85
48848;BME280;36611;51.638;5.784;2022-09-17T04:32:52;101275.56;;;15.15;58.93
48848;BME280;36611;51.638;5.784;2022-09-17T04:35:20;101281.81;;;15.15;58.56
48848;BME280;36611;51.638;5.784;2022-09-17T04:37:53;101278.25;;;15.15;58.26
48848;BME280;36611;51.638;5.784;2022-09-17T04:40:21;101281.09;;;15.13;58.48
48848;BME280;36611;51.638;5.784;2022-09-17T04:42:51;101284.78;;;15.12;58.18
48848;BME280;36611;51.638;5.784;2022-09-17T04:45:19;101279.63;;;15.09;58.21
48848;BME280;36611;51.638;5.784;2022-09-17T04:47:45;101296.00;;;15.08;58.34
48848;BME280;36611;51.638;5.784;2022-09-17T04:50:12;101289.00;;;15.05;57.90
48848;BME280;36611;51.638;5.784;2022-09-17T04:52:42;101290.09;;;15.03;58.01
48848;BME280;36611;51.638;5.784;2022-09-17T04:55:11;101284.09;;;14.99;58.23
48848;BME280;36611;51.638;5.784;2022-09-17T04:57:38;101283.59;;;14.94;58.00
48848;BME280;36611;51.638;5.784;2022-09-17T05:00:05;101288.41;;;14.90;58.06
48848;BME280;36611;51.638;5.784;2022-09-17T05:02:35;101283.34;;;14.86;57.92
48848;BME280;36611;51.638;5.784;2022-09-17T05:05:02;101289.00;;;14.83;57.98
48848;BME280;36611;51.638;5.784;2022-09-17T05:07:29;101284.84;;;14.79;58.28
48848;BME280;36611;51.638;5.784;2022-09-17T05:09:55;101285.94;;;14.76;58.48
48848;BME280;36611;51.638;5.784;2022-09-17T05:12:22;101284.34;;;14.74;58.44
48848;BME280;36611;51.638;5.784;2022-09-17T05:14:49;101291.47;;;14.75;58.13
48848;BME280;36611;51.638;5.784;2022-09-17T05:17:15;101287.31;;;14.71;58.43
48848;BME280;36611;51.638;5.784;2022-09-17T05:19:42;101301.81;;;14.70;58.23
48848;BME280;36611;51.638;5.784;2022-09-17T05:22:08;101299.09;;;14.70;58.50
48848;BME280;36611;51.638;5.784;2022-09-17T05:24:37;101298.97;;;14.71;58.25
48848;BME280;36611;51.638;5.784;2022-09-17T05:27:05;101298.13;;;14.71;58.56
48848;BME280;36611;51.638;5.784;2022-09-17T05:29:32;101307.22;;;14.70;58.40
48848;BME280;36611;51.638;5.784;2022-09-17T05:31:59;101311.03;;;14.67;58.45
48848;BME280;36611;51.638;5.784;2022-09-17T05:34:25;101313.84;;;14.66;58.30
48848;BME280;36611;51.638;5.784;2022-09-17T05:36:52;101306.72;;;14.65;58.58
48848;BME280;36611;51.638;5.784;2022-09-17T05:39:18;101308.44;;;14.66;58.71
48848;BME280;36611;51.638;5.784;2022-09-17T05:41:47;101305.75;;;14.66;58.63
48848;BME280;36611;51.638;5.784;2022-09-17T05:44:15;101306.59;;;14.66;58.30
48848;BME280;36611;51.638;5.784;2022-09-17T05:46:44;101311.03;;;14.67;58.35
48848;BME280;36611;51.638;5.784;2022-09-17T05:49:12;101314.59;;;14.68;58.54
48848;BME280;36611;51.638;5.784;2022-09-17T05:51:40;101315.44;;;14.68;58.75
48848;BME280;36611;51.638;5.784;2022-09-17T05:54:11;101321.84;;;14.67;58.59
48848;BME280;36611;51.638;5.784;2022-09-17T05:56:37;101329.09;;;14.67;58.84
48848;BME280;36611;51.638;5.784;2022-09-17T05:59:04;101329.09;;;14.67;58.75
48848;BME280;36611;51.638;5.784;2022-09-17T06:01:30;101332.78;;;14.66;58.49
48848;BME280;36611;51.638;5.784;2022-09-17T06:03:59;101335.34;;;14.67;58.77
48848;BME280;36611;51.638;5.784;2022-09-17T06:06:28;101338.06;;;14.67;58.49
48848;BME280;36611;51.638;5.784;2022-09-17T06:08:59;101337.09;;;14.68;58.95
48848;BME280;36611;51.638;5.784;2022-09-17T06:11:26;101338.69;;;14.71;58.67
48848;BME280;36611;51.638;5.784;2022-09-17T06:13:57;101343.97;;;14.72;58.83
48848;BME280;36611;51.638;5.784;2022-09-17T06:16:23;101346.28;;;14.77;58.81
48848;BME280;36611;51.638;5.784;2022-09-17T06:18:50;101349.59;;;14.80;58.50
48848;BME280;36611;51.638;5.784;2022-09-17T06:21:19;101348.38;;;14.84;58.71
48848;BME280;36611;51.638;5.784;2022-09-17T06:23:51;101350.75;;;14.89;59.15
48848;BME280;36611;51.638;5.784;2022-09-17T06:26:18;101349.63;;;14.91;58.85
48848;BME280;36611;51.638;5.784;2022-09-17T06:28:44;101355.53;;;14.97;58.96
48848;BME280;36611;51.638;5.784;2022-09-17T06:31:11;101355.28;;;15.00;58.65
48848;BME280;36611;51.638;5.784;2022-09-17T06:33:40;101355.03;;;15.03;58.75
48848;BME280;36611;51.638;5.784;2022-09-17T06:36:08;101351.94;;;15.07;58.96
48848;BME280;36611;51.638;5.784;2022-09-17T06:38:40;101355.88;;;15.14;59.08
48848;BME280;36611;51.638;5.784;2022-09-17T06:41:07;101354.38;;;15.21;58.78
48848;BME280;36611;51.638;5.784;2022-09-17T06:43:35;101349.31;;;15.28;58.85
48848;BME280;36611;51.638;5.784;2022-09-17T06:46:03;101347.94;;;15.34;58.97
48848;BME280;36611;51.638;5.784;2022-09-17T06:48:35;101345.72;;;15.39;58.73
48848;BME280;36611;51.638;5.784;2022-09-17T06:51:05;101344.22;;;15.46;58.95
48848;BME280;36611;51.638;5.784;2022-09-17T06:53:37;101349.09;;;15.52;58.65
48848;BME280;36611;51.638;5.784;2022-09-17T06:56:05;101352.19;;;15.58;58.25
48848;BME280;36611;51.638;5.784;2022-09-17T06:58:34;101344.44;;;15.65;58.23
48848;BME280;36611;51.638;5.784;2022-09-17T07:01:03;101350.06;;;15.73;58.27
48848;BME280;36611;51.638;5.784;2022-09-17T07:03:41;101352.13;;;15.81;58.24
48848;BME280;36611;51.638;5.784;2022-09-17T07:06:08;101350.47;;;15.89;58.38
48848;BME280;36611;51.638;5.784;2022-09-17T07:08:36;101350.69;;;15.98;58.22
48848;BME280;36611;51.638;5.784;2022-09-17T07:11:03;101358.16;;;16.05;58.24
48848;BME280;36611;51.638;5.784;2022-09-17T07:13:33;101357.38;;;16.14;58.10
48848;BME280;36611;51.638;5.784;2022-09-17T07:16:01;101356.44;;;16.25;58.29
48848;BME280;36611;51.638;5.784;2022-09-17T07:18:28;101355.25;;;16.39;58.12
48848;BME280;36611;51.638;5.784;2022-09-17T07:20:57;101355.75;;;16.53;57.56
48848;BME280;36611;51.638;5.784;2022-09-17T07:23:34;101354.44;;;16.69;57.85
48848;BME280;36611;51.638;5.784;2022-09-17T07:26:06;101354.50;;;16.88;57.78
48848;BME280;36611;51.638;5.784;2022-09-17T07:28:34;101357.56;;;17.04;57.17
48848;BME280;36611;51.638;5.784;2022-09-17T07:31:04;101356.50;;;17.17;56.79
48848;BME280;36611;51.638;5.784;2022-09-17T07:33:36;101360.81;;;17.29;56.66
48848;BME280;36611;51.638;5.784;2022-09-17T07:36:05;101357.97;;;17.40;56.21
48848;BME280;36611;51.638;5.784;2022-09-17T07:38:33;101355.41;;;17.48;55.99
48848;BME280;36611;51.638;5.784;2022-09-17T07:41:03;101361.56;;;17.60;55.50
48848;BME280;36611;51.638;5.784;2022-09-17T07:43:34;101355.16;;;17.70;55.50
48848;BME280;36611;51.638;5.784;2022-09-17T07:46:02;101354.88;;;17.83;55.14
48848;BME280;36611;51.638;5.784;2022-09-17T07:48:30;101355.75;;;17.93;54.81
48848;BME280;36611;51.638;5.784;2022-09-17T07:50:56;101344.31;;;17.99;54.41
48848;BME280;36611;51.638;5.784;2022-09-17T07:53:23;101342.88;;;18.05;54.57
48848;BME280;36611;51.638;5.784;2022-09-17T07:55:58;101347.88;;;18.09;53.89
48848;BME280;36611;51.638;5.784;2022-09-17T07:58:30;101345.72;;;18.13;53.84
48848;BME280;36611;51.638;5.784;2022-09-17T08:01:07;101349.00;;;18.17;53.69
48848;BME280;36611;51.638;5.784;2022-09-17T08:03:38;101348.56;;;18.21;53.30
48848;BME280;36611;51.638;5.784;2022-09-17T08:06:13;101354.28;;;18.28;53.72
48848;BME280;36611;51.638;5.784;2022-09-17T08:08:40;101356.97;;;18.37;53.57
48848;BME280;36611;51.638;5.784;2022-09-17T08:11:08;101360.81;;;18.45;53.13
48848;BME280;36611;51.638;5.784;2022-09-17T08:13:39;101355.78;;;18.50;52.94
48848;BME280;36611;51.638;5.784;2022-09-17T08:16:08;101367.38;;;18.52;52.79
48848;BME280;36611;51.638;5.784;2022-09-17T08:18:35;101368.09;;;18.54;52.47
48848;BME280;36611;51.638;5.784;2022-09-17T08:21:04;101367.38;;;18.52;52.60
48848;BME280;36611;51.638;5.784;2022-09-17T08:23:34;101371.66;;;18.54;52.28
48848;BME280;36611;51.638;5.784;2022-09-17T08:26:02;101369.50;;;18.58;51.85
48848;BME280;36611;51.638;5.784;2022-09-17T08:28:30;101363.53;;;18.64;51.53
48848;BME280;36611;51.638;5.784;2022-09-17T08:31:01;101360.06;;;18.71;51.86
48848;BME280;36611;51.638;5.784;2022-09-17T08:33:33;101368.19;;;18.81;51.60
48848;BME280;36611;51.638;5.784;2022-09-17T08:36:00;101375.19;;;18.84;51.20
48848;BME280;36611;51.638;5.784;2022-09-17T08:38:28;101375.34;;;18.82;51.50
48848;BME280;36611;51.638;5.784;2022-09-17T08:44:10;101374.50;;;18.82;51.04
48848;BME280;36611;51.638;5.784;2022-09-17T08:46:47;101370.16;;;18.89;51.04
48848;BME280;36611;51.638;5.784;2022-09-17T08:49:35;101372.13;;;18.96;51.17
48848;BME280;36611;51.638;5.784;2022-09-17T08:57:46;101374.44;;;19.19;50.41
48848;BME280;36611;51.638;5.784;2022-09-17T09:00:20;101369.56;;;19.22;50.58
48848;BME280;36611;51.638;5.784;2022-09-17T09:03:04;101364.03;;;19.32;50.60
48848;BME280;36611;51.638;5.784;2022-09-17T09:05:47;101369.47;;;19.42;50.01
48848;BME280;36611;51.638;5.784;2022-09-17T09:08:24;101372.13;;;19.51;50.03
48848;BME280;36611;51.638;5.784;2022-09-17T09:10:59;101368.13;;;19.55;49.88
48848;BME280;36611;51.638;5.784;2022-09-17T09:13:35;101374.41;;;19.56;49.29
48848;BME280;36611;51.638;5.784;2022-09-17T09:16:10;101363.75;;;19.62;49.74
48848;BME280;36611;51.638;5.784;2022-09-17T09:18:41;101370.84;;;19.73;49.48
48848;BME280;36611;51.638;5.784;2022-09-17T09:26:43;101368.56;;;19.86;48.90
48848;BME280;36611;51.638;5.784;2022-09-17T09:34:52;101363.91;;;19.79;48.29
48848;BME280;36611;51.638;5.784;2022-09-17T09:37:30;101351.59;;;19.75;48.63
48848;BME280;36611;51.638;5.784;2022-09-17T09:42:39;101353.31;;;19.76;48.36
48848;BME280;36611;51.638;5.784;2022-09-17T09:45:16;101355.03;;;19.77;48.46
48848;BME280;36611;51.638;5.784;2022-09-17T09:48:02;101370.53;;;19.76;47.98
48848;BME280;36611;51.638;5.784;2022-09-17T09:54:22;101381.72;;;19.55;46.96
48848;BME280;36611;51.638;5.784;2022-09-17T09:56:50;101393.44;;;19.28;47.31
48848;BME280;36611;51.638;5.784;2022-09-17T09:59:20;101403.03;;;19.05;47.22
48848;BME280;36611;51.638;5.784;2022-09-17T10:01:46;101408.00;;;18.82;47.74
48848;BME280;36611;51.638;5.784;2022-09-17T10:04:21;101400.16;;;18.60;48.07
48848;BME280;36611;51.638;5.784;2022-09-17T10:06:51;101396.59;;;18.40;48.40
48848;BME280;36611;51.638;5.784;2022-09-17T10:09:19;101400.06;;;18.32;48.32
48848;BME280;36611;51.638;5.784;2022-09-17T10:14:44;101389.00;;;18.43;48.79
48848;BME280;36611;51.638;5.784;2022-09-17T10:17:24;101385.13;;;18.56;49.38
48848;BME280;36611;51.638;5.784;2022-09-17T10:22:34;101377.31;;;18.90;49.29
48848;BME280;36611;51.638;5.784;2022-09-17T10:27:46;101377.56;;;19.24;49.39
48848;BME280;36611;51.638;5.784;2022-09-17T10:30:15;101378.66;;;19.41;49.38
48848;BME280;36611;51.638;5.784;2022-09-17T10:32:43;101372.97;;;19.52;49.22
48848;BME280;36611;51.638;5.784;2022-09-17T10:37:48;101370.53;;;19.76;49.15
48848;BME280;36611;51.638;5.784;2022-09-17T10:42:49;101372.16;;;20.05;48.73
48848;BME280;36611;51.638;5.784;2022-09-17T10:45:28;101360.69;;;20.19;48.37
48848;BME280;36611;51.638;5.784;2022-09-17T10:47:56;101352.78;;;20.34;48.46
48848;BME280;36611;51.638;5.784;2022-09-17T10:50:31;101358.56;;;20.48;48.22
48848;BME280;36611;51.638;5.784;2022-09-17T10:53:03;101359.66;;;20.63;47.68
48848;BME280;36611;51.638;5.784;2022-09-17T11:03:50;101344.03;;;21.08;46.35
48848;BME280;36611;51.638;5.784;2022-09-17T11:17:11;101331.94;;;21.18;44.22
48848;BME280;36611;51.638;5.784;2022-09-17T11:19:58;101332.47;;;21.22;44.38
48848;BME280;36611;51.638;5.784;2022-09-17T11:22:42;101329.25;;;21.27;44.60
48848;BME280;36611;51.638;5.784;2022-09-17T11:25:51;101330.13;;;21.27;44.12
48848;BME280;36611;51.638;5.784;2022-09-17T11:34:39;101350.69;;;20.79;45.16
48848;BME280;36611;51.638;5.784;2022-09-17T11:39:46;101351.31;;;20.39;45.59
48848;BME280;36611;51.638;5.784;2022-09-17T11:42:21;101350.66;;;20.19;46.33
48848;BME280;36611;51.638;5.784;2022-09-17T11:47:51;101346.16;;;20.10;46.99
48848;BME280;36611;51.638;5.784;2022-09-17T11:50:26;101333.97;;;20.22;47.27
48848;BME280;36611;51.638;5.784;2022-09-17T11:55:50;101330.97;;;20.59;47.90
48848;BME280;36611;51.638;5.784;2022-09-17T11:58:37;101328.50;;;20.74;47.69
48848;BME280;36611;51.638;5.784;2022-09-17T12:01:30;101323.66;;;20.94;47.45
48848;BME280;36611;51.638;5.784;2022-09-17T12:04:21;101319.13;;;21.11;47.25
48848;BME280;36611;51.638;5.784;2022-09-17T12:10:16;101313.91;;;21.34;46.99
48848;BME280;36611;51.638;5.784;2022-09-17T12:13:02;101308.28;;;21.43;46.64
48848;BME280;36611;51.638;5.784;2022-09-17T12:15:34;101307.97;;;21.54;46.38
48848;BME280;36611;51.638;5.784;2022-09-17T12:18:18;101304.06;;;21.57;45.71
48848;BME280;36611;51.638;5.784;2022-09-17T12:21:00;101301.81;;;21.52;45.32
48848;BME280;36611;51.638;5.784;2022-09-17T12:23:38;101300.28;;;21.50;44.91
48848;BME280;36611;51.638;5.784;2022-09-17T12:26:17;101302.66;;;21.53;44.41
48848;BME280;36611;51.638;5.784;2022-09-17T12:29:00;101303.75;;;21.60;44.45
48848;BME280;36611;51.638;5.784;2022-09-17T12:31:40;101302.88;;;21.60;43.84
48848;BME280;36611;51.638;5.784;2022-09-17T12:34:31;101315.47;;;21.52;43.99
48848;BME280;36611;51.638;5.784;2022-09-17T12:40:05;101295.81;;;21.41;43.19
48848;BME280;36611;51.638;5.784;2022-09-17T12:42:48;101305.72;;;21.34;43.29
48848;BME280;36611;51.638;5.784;2022-09-17T12:53:47;101284.25;;;20.97;42.40
48848;BME280;36611;51.638;5.784;2022-09-17T12:56:57;101280.50;;;20.98;42.36
48848;BME280;36611;51.638;5.784;2022-09-17T12:59:29;101280.16;;;21.01;41.77
48848;BME280;36611;51.638;5.784;2022-09-17T13:02:15;101273.34;;;21.05;42.25
48848;BME280;36611;51.638;5.784;2022-09-17T13:12:44;101283.28;;;21.22;41.28
48848;BME280;36611;51.638;5.784;2022-09-17T13:20:41;101293.81;;;20.92;41.63
48848;BME280;36611;51.638;5.784;2022-09-17T13:23:09;101295.47;;;20.85;41.63
48848;BME280;36611;51.638;5.784;2022-09-17T13:25:50;101290.28;;;20.74;41.12
48848;BME280;36611;51.638;5.784;2022-09-17T13:28:20;101289.72;;;20.62;41.27
48848;BME280;36611;51.638;5.784;2022-09-17T13:31:04;101297.34;;;20.51;41.19
48848;BME280;36611;51.638;5.784;2022-09-17T13:33:54;101298.47;;;20.40;41.44
48848;BME280;36611;51.638;5.784;2022-09-17T13:39:42;101284.88;;;20.48;41.19
48848;BME280;36611;51.638;5.784;2022-09-17T13:42:11;101287.66;;;20.56;41.22
48848;BME280;36611;51.638;5.784;2022-09-17T13:44:52;101286.50;;;20.67;40.83
48848;BME280;36611;51.638;5.784;2022-09-17T13:47:29;101279.44;;;20.82;40.57
48848;BME280;36611;51.638;5.784;2022-09-17T13:52:33;101298.41;;;20.92;40.71
48848;BME280;36611;51.638;5.784;2022-09-17T13:55:02;101300.28;;;20.91;41.25
48848;BME280;36611;51.638;5.784;2022-09-17T13:57:30;101306.06;;;20.88;41.36
48848;BME280;36611;51.638;5.784;2022-09-17T13:59:59;101309.31;;;20.92;41.14
48848;BME280;36611;51.638;5.784;2022-09-17T14:02:30;101293.81;;;21.01;41.43
48848;BME280;36611;51.638;5.784;2022-09-17T14:05:24;101303.06;;;21.08;41.09
48848;BME280;36611;51.638;5.784;2022-09-17T14:07:51;101300.56;;;21.22;41.47
48848;BME280;36611;51.638;5.784;2022-09-17T14:10:40;101305.03;;;21.40;40.70
48848;BME280;36611;51.638;5.784;2022-09-17T14:13:44;101300.97;;;21.52;40.88
48848;BME280;36611;51.638;5.784;2022-09-17T14:16:44;101308.00;;;21.71;40.72
48848;BME280;36611;51.638;5.784;2022-09-17T14:24:27;101314.00;;;21.91;40.94
48848;BME280;36611;51.638;5.784;2022-09-17T14:35:01;101317.84;;;21.39;40.94
48848;BME280;36611;51.638;5.784;2022-09-17T14:37:29;101319.72;;;21.31;40.98
48848;BME280;36611;51.638;5.784;2022-09-17T14:39:55;101320.00;;;21.19;41.00
48848;BME280;36611;51.638;5.784;2022-09-17T14:42:31;101332.94;;;21.09;41.05
48848;BME280;36611;51.638;5.784;2022-09-17T14:45:06;101325.91;;;20.99;41.13
48848;BME280;36611;51.638;5.784;2022-09-17T14:47:39;101317.16;;;20.87;41.13
48848;BME280;36611;51.638;5.784;2022-09-17T14:50:19;101325.78;;;20.74;41.06
48848;BME280;36611;51.638;5.784;2022-09-17T14:52:47;101322.31;;;20.64;41.33
48848;BME280;36611;51.638;5.784;2022-09-17T14:55:26;101319.53;;;20.56;41.37
48848;BME280;36611;51.638;5.784;2022-09-17T14:57:58;101317.78;;;20.47;41.26
48848;BME280;36611;51.638;5.784;2022-09-17T15:00:33;101319.44;;;20.40;41.89
48848;BME280;36611;51.638;5.784;2022-09-17T15:03:00;101324.34;;;20.36;41.98
48848;BME280;36611;51.638;5.784;2022-09-17T15:05:34;101325.50;;;20.34;42.12
48848;BME280;36611;51.638;5.784;2022-09-17T15:10:45;101329.19;;;20.24;42.59
48848;BME280;36611;51.638;5.784;2022-09-17T15:13:18;101324.72;;;20.15;42.53
48848;BME280;36611;51.638;5.784;2022-09-17T15:16:10;101333.13;;;20.04;42.39
48848;BME280;36611;51.638;5.784;2022-09-17T15:18:42;101323.16;;;19.95;42.12
48848;BME280;36611;51.638;5.784;2022-09-17T15:21:40;101321.38;;;19.86;42.33
48848;BME280;36611;51.638;5.784;2022-09-17T15:27:08;101321.78;;;19.73;42.49
48848;BME280;36611;51.638;5.784;2022-09-17T15:29:40;101321.94;;;19.72;42.37
48848;BME280;36611;51.638;5.784;2022-09-17T15:32:11;101323.28;;;19.67;42.55
48848;BME280;36611;51.638;5.784;2022-09-17T15:34:39;101331.59;;;19.66;42.39
48848;BME280;36611;51.638;5.784;2022-09-17T15:39:46;101334.94;;;19.60;41.84
48848;BME280;36611;51.638;5.784;2022-09-17T15:42:28;101329.50;;;19.60;41.71
48848;BME280;36611;51.638;5.784;2022-09-17T15:45:20;101336.81;;;19.59;41.89
48848;BME280;36611;51.638;5.784;2022-09-17T15:47:51;101329.50;;;19.60;41.89
48848;BME280;36611;51.638;5.784;2022-09-17T15:50:22;101336.97;;;19.58;42.02
48848;BME280;36611;51.638;5.784;2022-09-17T15:52:57;101336.13;;;19.57;41.75
48848;BME280;36611;51.638;5.784;2022-09-17T15:58:20;101340.00;;;19.55;42.08
48848;BME280;36611;51.638;5.784;2022-09-17T16:00:46;101332.84;;;19.54;41.98
48848;BME280;36611;51.638;5.784;2022-09-17T16:08:56;101339.34;;;19.43;42.08